Terminal Aerodrome Forecast
Issued by NWS

Home | Current Version | Previous Version | Text Only | Print | Product List | Glossary On
Versions: 1 2 3 4 5 6 7 8 9 10 11 12 13 14
000
FTUS45 KABQ 271740
TAFFMN
TAF
KFMN 271740Z 2718/2818 28010KT P6SM FEW150
     FM280100 11015KT P6SM VCSH BKN070
     FM280900 08011KT P6SM BKN100=

USA.gov is the U.S. government's official web portal to all federal, state and local government web resources and services.